Time,TemperatureF,DewpointF,PressureIn,WindDirection,WindDirectionDegrees,WindSpeedMPH,WindSpeedGustMPH,Humidity,HourlyPrecipIn,Conditions,Clouds,dailyrainin,SolarRadiationWatts/m^2,SoftwareType,DateUTC
2013-03-04 00:03:00,27.1,25.1,29.03,NE,55,0.0,0.0,92,0.00,CLR,FEW,0.00,0.0,WeatherDisplay:10.37,2013-03-03 23:03:00,
2013-03-04 00:08:00,27.1,25.1,29.03,NNW,345,0.0,0.0,92,0.00,CLR,FEW,0.00,0.0,WeatherDisplay:10.37,2013-03-03 23:08:00,
2013-03-04 00:13:00,27.1,25.1,29.03,NNW,345,0.0,0.0,92,0.00,CLR,FEW,0.00,0.0,WeatherDisplay:10.37,2013-03-03 23:13:00,
2013-03-04 00:18:00,27.3,25.3,29.03,North,355,0.0,0.0,92,0.00,CLR,FEW,0.00,0.0,WeatherDisplay:10.37,2013-03-03 23:18:00,
2013-03-04 00:23:00,27.3,25.3,29.03,NNW,330,0.0,0.0,92,0.00,CLR,FEW,0.00,0.0,WeatherDisplay:10.37,2013-03-03 23:23:00,
2013-03-04 00:28:00,27.5,25.5,29.03,North,5,0.0,0.0,92,0.00,CLR,FEW,0.00,0.0,WeatherDisplay:10.37,2013-03-03 23:28:00,
2013-03-04 00:33:00,27.5,25.5,29.03,NNW,335,0.0,0.0,92,0.00,CLR,FEW,0.00,0.0,WeatherDisplay:10.37,2013-03-03 23:33:00,
2013-03-04 00:38:00,27.5,25.5,29.03,NNW,335,0.0,0.0,92,0.00,CLR,FEW,0.00,0.0,WeatherDisplay:10.37,2013-03-03 23:38:00,
2013-03-04 00:43:00,27.9,25.8,29.03,North,0,0.0,0.0,92,0.00,CLR,FEW,0.00,0.0,WeatherDisplay:10.37,2013-03-03 23:43:00,
2013-03-04 00:48:00,27.9,25.8,29.03,NNW,345,0.0,0.0,92,0.00,CLR,FEW,0.00,0.0,WeatherDisplay:10.37,2013-03-03 23:48:00,
2013-03-04 00:53:00,27.9,25.8,29.03,NNW,345,0.0,0.0,92,0.00,CLR,FEW,0.00,0.0,WeatherDisplay:10.37,2013-03-03 23:53:00,
2013-03-04 00:58:00,28.6,26.6,29.06,North,5,0.0,0.0,92,0.00,CLR,FEW,0.00,0.0,WeatherDisplay:10.37,2013-03-03 23:58:00,
2013-03-04 01:03:00,28.6,26.6,29.06,NW,325,0.0,0.0,92,0.00,CLR,FEW,0.00,0.0,WeatherDisplay:10.37,2013-03-04 00:03:00,
2013-03-04 01:08:00,28.6,26.6,29.03,NNW,335,0.0,0.0,92,0.00,CLR,FEW,0.00,0.0,WeatherDisplay:10.37,2013-03-04 00:08:00,
2013-03-04 01:13:00,28.6,26.6,29.03,NNW,335,0.0,0.0,92,0.00,CLR,FEW,0.00,0.0,WeatherDisplay:10.37,2013-03-04 00:13:00,
2013-03-04 01:18:00,28.8,26.7,29.03,ENE,60,0.0,0.0,92,0.00,CLR,FEW,0.00,0.0,WeatherDisplay:10.37,2013-03-04 00:18:00,
2013-03-04 01:23:00,28.9,26.6,29.03,WNW,285,0.0,0.4,91,0.00,CLR,FEW,0.00,0.0,WeatherDisplay:10.37,2013-03-04 00:23:00,
2013-03-04 01:28:00,28.9,26.6,29.03,NNW,345,0.0,0.0,91,0.00,CLR,FEW,0.00,0.0,WeatherDisplay:10.37,2013-03-04 00:28:00,
2013-03-04 01:33:00,29.1,26.8,29.03,NW,305,0.0,0.0,91,0.00,CLR,FEW,0.00,0.0,WeatherDisplay:10.37,2013-03-04 00:33:00,
2013-03-04 01:38:00,29.1,26.8,29.03,NW,305,0.0,0.0,91,0.00,CLR,FEW,0.00,0.0,WeatherDisplay:10.37,2013-03-04 00:38:00,
2013-03-04 01:43:00,29.1,26.8,29.03,NE,40,0.0,0.6,91,0.00,CLR,FEW,0.00,0.0,WeatherDisplay:10.37,2013-03-04 00:43:00,
2013-03-04 01:48:00,29.1,26.8,29.03,NE,35,1.1,1.1,91,0.00,CLR,FEW,0.00,0.0,WeatherDisplay:10.37,2013-03-04 00:48:00,
2013-03-04 01:53:00,29.1,26.8,29.03,NE,35,0.0,0.0,91,0.00,CLR,FEW,0.00,0.0,WeatherDisplay:10.37,2013-03-04 00:53:00,
2013-03-04 01:58:00,28.9,26.6,29.03,NNE,20,0.0,0.0,91,0.00,CLR,FEW,0.00,0.0,WeatherDisplay:10.37,2013-03-04 00:58:00,
2013-03-04 02:03:00,28.9,26.6,29.03,North,350,0.0,0.0,91,0.00,CLR,FEW,0.00,0.0,WeatherDisplay:10.37,2013-03-04 01:03:00,
2013-03-04 02:08:00,28.9,26.6,29.03,NNW,330,0.0,0.0,91,0.00,CLR,FEW,0.00,0.0,WeatherDisplay:10.37,2013-03-04 01:08:00,
2013-03-04 02:13:00,28.9,26.6,29.03,NNW,330,0.0,0.0,91,0.00,CLR,FEW,0.00,0.0,WeatherDisplay:10.37,2013-03-04 01:13:00,
2013-03-04 02:18:00,29.1,26.8,29.03,WNW,300,0.0,0.0,91,0.00,CLR,FEW,0.00,0.0,WeatherDisplay:10.37,2013-03-04 01:18:00,
2013-03-04 02:23:00,29.8,27.5,29.03,NW,310,0.0,0.0,91,0.00,CLR,FEW,0.00,0.0,WeatherDisplay:10.37,2013-03-04 01:23:00,
2013-03-04 02:28:00,29.5,27.2,29.03,NNE,15,0.0,0.0,91,0.00,CLR,FEW,0.00,0.0,WeatherDisplay:10.37,2013-03-04 01:28:00,
2013-03-04 02:33:00,29.3,27.0,29.03,NW,320,0.0,0.6,91,0.00,CLR,FEW,0.00,0.0,WeatherDisplay:10.37,2013-03-04 01:33:00,
2013-03-04 02:38:00,29.3,27.0,29.03,NW,320,0.0,0.6,91,0.00,CLR,FEW,0.00,0.0,WeatherDisplay:10.37,2013-03-04 01:38:00,
2013-03-04 02:43:00,28.9,26.6,29.03,NNW,330,0.0,0.0,91,0.00,CLR,FEW,0.00,0.0,WeatherDisplay:10.37,2013-03-04 01:43:00,
2013-03-04 02:48:00,28.9,26.6,29.03,North,350,0.0,0.0,91,0.00,CLR,FEW,0.00,0.0,WeatherDisplay:10.37,2013-03-04 01:48:00,
2013-03-04 02:53:00,28.6,26.3,29.03,North,350,0.0,0.0,91,0.00,CLR,FEW,0.00,0.0,WeatherDisplay:10.37,2013-03-04 01:53:00,
2013-03-04 02:58:00,28.2,25.9,29.03,NW,325,0.0,0.0,91,0.00,CLR,FEW,0.00,0.0,WeatherDisplay:10.37,2013-03-04 01:58:00,
2013-03-04 03:03:00,28.0,26.0,29.03,North,350,0.0,0.0,92,0.00,CLR,FEW,0.00,0.0,WeatherDisplay:10.37,2013-03-04 02:03:00,
2013-03-04 03:08:00,27.3,25.3,29.03,NNW,340,0.0,0.0,92,0.00,CLR,FEW,0.00,0.0,WeatherDisplay:10.37,2013-03-04 02:08:00,
2013-03-04 03:13:00,27.3,25.3,29.03,NNW,340,0.0,0.0,92,0.00,CLR,FEW,0.00,0.0,WeatherDisplay:10.37,2013-03-04 02:13:00,
2013-03-04 03:18:00,27.0,24.9,29.03,NW,325,0.0,0.0,92,0.00,CLR,FEW,0.00,0.0,WeatherDisplay:10.37,2013-03-04 02:18:00,
2013-03-04 03:23:00,26.8,25.0,29.03,NNW,345,0.0,0.0,93,0.00,CLR,FEW,0.00,0.0,WeatherDisplay:10.37,2013-03-04 02:23:00,
2013-03-04 03:28:00,26.6,24.8,29.03,NNW,330,0.0,0.0,93,0.00,CLR,FEW,0.00,0.0,WeatherDisplay:10.37,2013-03-04 02:28:00,
2013-03-04 03:33:00,26.6,24.8,29.03,NW,315,0.0,0.0,93,0.00,CLR,FEW,0.00,0.0,WeatherDisplay:10.37,2013-03-04 02:33:00,
2013-03-04 03:38:00,26.6,24.8,29.03,NW,315,0.0,0.0,93,0.00,CLR,FEW,0.00,0.0,WeatherDisplay:10.37,2013-03-04 02:38:00,
2013-03-04 03:43:00,26.6,24.8,29.03,NW,315,0.0,0.0,93,0.00,CLR,FEW,0.00,0.0,WeatherDisplay:10.37,2013-03-04 02:43:00,
2013-03-04 03:48:00,26.6,24.8,29.03,NW,325,0.0,0.0,93,0.00,CLR,FEW,0.00,0.0,WeatherDisplay:10.37,2013-03-04 02:48:00,
2013-03-04 03:53:00,26.6,24.8,29.03,West,265,0.0,0.0,93,0.00,CLR,FEW,0.00,0.0,WeatherDisplay:10.37,2013-03-04 02:53:00,
2013-03-04 03:58:00,26.8,25.0,29.03,West,260,0.0,0.0,93,0.00,CLR,FEW,0.00,0.0,WeatherDisplay:10.37,2013-03-04 02:58:00,
2013-03-04 04:03:00,27.0,25.2,29.03,WSW,240,0.0,0.0,93,0.00,CLR,FEW,0.00,0.0,WeatherDisplay:10.37,2013-03-04 03:03:00,
2013-03-04 04:08:00,27.1,25.4,29.03,South,180,0.0,0.0,93,0.00,CLR,FEW,0.00,0.0,WeatherDisplay:10.37,2013-03-04 03:08:00,
2013-03-04 04:13:00,27.5,25.7,29.03,SW,215,0.0,0.0,93,0.00,CLR,FEW,0.00,0.0,WeatherDisplay:10.37,2013-03-04 03:13:00,
2013-03-04 04:18:00,27.5,25.7,29.03,SW,215,0.0,0.0,93,0.00,CLR,FEW,0.00,0.0,WeatherDisplay:10.37,2013-03-04 03:18:00,
2013-03-04 04:23:00,28.0,26.5,29.03,SW,220,0.0,0.0,94,0.00,CLR,FEW,0.00,0.0,WeatherDisplay:10.37,2013-03-04 03:23:00,
2013-03-04 04:28:00,28.0,26.5,29.03,SW,220,0.0,0.0,94,0.00,CLR,FEW,0.00,0.0,WeatherDisplay:10.37,2013-03-04 03:28:00,
2013-03-04 04:33:00,28.4,26.6,29.03,South,175,0.0,0.0,93,0.00,CLR,FEW,0.00,0.0,WeatherDisplay:10.37,2013-03-04 03:33:00,
2013-03-04 04:38:00,28.6,26.8,29.03,WSW,250,0.0,0.0,93,0.00,CLR,FEW,0.00,0.0,WeatherDisplay:10.37,2013-03-04 03:38:00,
2013-03-04 04:43:00,28.6,26.8,29.03,WSW,250,0.0,0.0,93,0.00,CLR,FEW,0.00,0.0,WeatherDisplay:10.37,2013-03-04 03:43:00,
2013-03-04 04:48:00,28.9,26.9,29.03,NE,45,0.0,0.0,92,0.00,CLR,FEW,0.00,0.0,WeatherDisplay:10.37,2013-03-04 03:48:00,
2013-03-04 04:53:00,28.8,26.7,29.03,North,355,0.0,0.0,92,0.00,CLR,FEW,0.00,0.0,WeatherDisplay:10.37,2013-03-04 03:53:00,
2013-03-04 04:58:00,28.8,26.7,29.03,NNW,335,0.0,0.0,92,0.00,CLR,FEW,0.00,0.0,WeatherDisplay:10.37,2013-03-04 03:58:00,
2013-03-04 05:03:00,28.8,26.7,29.03,NNW,345,0.0,0.0,92,0.00,CLR,FEW,0.00,0.0,WeatherDisplay:10.37,2013-03-04 04:03:00,
2013-03-04 05:08:00,28.6,26.6,29.03,NNE,15,0.0,0.0,92,0.00,CLR,FEW,0.00,0.0,WeatherDisplay:10.37,2013-03-04 04:08:00,
2013-03-04 05:13:00,28.8,26.7,29.03,NNE,15,0.0,0.0,92,0.00,CLR,FEW,0.00,0.0,WeatherDisplay:10.37,2013-03-04 04:13:00,
2013-03-04 05:18:00,28.8,26.7,29.03,NNE,15,0.0,0.0,92,0.00,CLR,FEW,0.00,0.0,WeatherDisplay:10.37,2013-03-04 04:18:00,
2013-03-04 05:23:00,28.8,26.7,29.03,NNE,15,0.0,0.0,92,0.00,CLR,FEW,0.00,0.0,WeatherDisplay:10.37,2013-03-04 04:23:00,
2013-03-04 05:28:00,28.9,27.2,29.06,WSW,255,0.0,0.0,93,0.00,CLR,FEW,0.00,0.0,WeatherDisplay:10.37,2013-03-04 04:28:00,
2013-03-04 05:33:00,29.1,27.1,29.06,West,260,0.0,0.0,92,0.00,CLR,FEW,0.00,0.0,WeatherDisplay:10.37,2013-03-04 04:33:00,
2013-03-04 05:38:00,29.3,27.3,29.03,West,260,0.0,0.0,92,0.00,CLR,FEW,0.00,0.0,WeatherDisplay:10.37,2013-03-04 04:38:00,
2013-03-04 05:43:00,29.3,27.3,29.03,West,260,0.0,0.0,92,0.00,CLR,FEW,0.00,0.0,WeatherDisplay:10.37,2013-03-04 04:43:00,
2013-03-04 05:48:00,29.3,27.3,29.03,West,280,0.0,0.0,92,0.00,CLR,FEW,0.00,0.0,WeatherDisplay:10.37,2013-03-04 04:48:00,
2013-03-04 05:53:00,29.3,27.3,29.03,SSW,210,0.0,0.0,92,0.00,CLR,FEW,0.00,0.0,WeatherDisplay:10.37,2013-03-04 04:53:00,
2013-03-04 05:59:00,29.5,27.4,29.06,SSW,195,0.0,0.0,92,0.00,CLR,FEW,0.00,0.0,WeatherDisplay:10.37,2013-03-04 04:59:00,
2013-03-04 06:00:00,29.5,27.4,29.06,SSW,195,0.0,0.0,92,0.00,CLR,FEW,0.00,0.0,WeatherDisplay:10.37,2013-03-04 05:00:00,
2013-03-04 06:05:00,29.5,27.4,29.06,West,270,0.0,0.0,92,0.00,CLR,FEW,0.00,0.0,WeatherDisplay:10.37,2013-03-04 05:05:00,
2013-03-04 06:10:00,29.5,27.4,29.06,WSW,250,0.0,0.0,92,0.00,OVC,FEW,0.00,0.0,WeatherDisplay:10.37,2013-03-04 05:10:00,
2013-03-04 06:15:00,29.5,27.4,29.06,South,180,0.0,0.0,92,0.00,OVC,FEW,0.00,0.0,WeatherDisplay:10.37,2013-03-04 05:15:00,
2013-03-04 06:20:00,29.3,27.3,29.06,SE,140,0.0,0.0,92,0.00,OVC,FEW,0.00,0.0,WeatherDisplay:10.37,2013-03-04 05:20:00,
2013-03-04 06:25:00,29.3,27.3,29.06,SE,140,0.0,0.0,92,0.00,OVC,FEW,0.00,0.0,WeatherDisplay:10.37,2013-03-04 05:25:00,
2013-03-04 06:30:00,29.1,27.1,29.06,SE,140,0.0,0.0,92,0.00,OVC,FEW,0.00,0.0,WeatherDisplay:10.37,2013-03-04 05:30:00,
2013-03-04 06:35:00,28.9,26.9,29.06,SE,140,0.0,0.0,92,0.00,OVC,FEW,0.00,0.0,WeatherDisplay:10.37,2013-03-04 05:35:00,
2013-03-04 06:40:00,28.9,26.9,29.06,SE,140,0.0,0.0,92,0.00,OVC,FEW,0.00,0.0,WeatherDisplay:10.37,2013-03-04 05:40:00,
2013-03-04 06:45:00,28.9,26.9,29.06,SE,140,0.0,0.0,92,0.00,OVC,FEW,0.00,0.0,WeatherDisplay:10.37,2013-03-04 05:45:00,
2013-03-04 06:50:00,28.9,26.9,29.06,SE,140,0.0,0.0,92,0.00,OVC,FEW,0.00,0.0,WeatherDisplay:10.37,2013-03-04 05:50:00,
2013-03-04 06:55:00,28.9,26.9,29.06,SE,140,0.0,0.0,92,0.00,OVC,FEW,0.00,0.0,WeatherDisplay:10.37,2013-03-04 05:55:00,
2013-03-04 07:00:00,28.8,26.7,29.06,SE,140,0.0,0.0,92,0.00,OVC,FEW,0.00,0.0,WeatherDisplay:10.37,2013-03-04 06:00:00,
2013-03-04 07:05:00,28.8,26.7,29.06,SE,140,0.0,0.0,92,0.00,OVC,FEW,0.00,0.0,WeatherDisplay:10.37,2013-03-04 06:05:00,
2013-03-04 07:10:00,28.6,26.6,29.06,SE,140,0.0,0.0,92,0.00,OVC,FEW,0.00,0.0,WeatherDisplay:10.37,2013-03-04 06:10:00,
2013-03-04 07:15:00,28.6,26.6,29.06,SE,140,0.0,0.0,92,0.00,OVC,FEW,0.00,0.0,WeatherDisplay:10.37,2013-03-04 06:15:00,
2013-03-04 07:20:00,28.6,26.8,29.06,SE,140,0.0,0.0,93,0.00,OVC,FEW,0.00,0.0,WeatherDisplay:10.37,2013-03-04 06:20:00,
2013-03-04 07:25:00,28.6,26.8,29.06,SE,140,0.0,0.0,93,0.00,OVC,FEW,0.00,0.0,WeatherDisplay:10.37,2013-03-04 06:25:00,
2013-03-04 07:30:00,28.8,27.0,29.06,WSW,240,0.0,0.0,93,0.00,OVC,FEW,0.00,0.0,WeatherDisplay:10.37,2013-03-04 06:30:00,
2013-03-04 07:35:00,28.6,26.8,29.06,SW,215,0.0,0.0,93,0.00,OVC,FEW,0.00,0.0,WeatherDisplay:10.37,2013-03-04 06:35:00,
2013-03-04 07:40:00,28.9,27.2,29.06,WSW,255,0.0,0.0,93,0.00,OVC,FEW,0.00,0.0,WeatherDisplay:10.37,2013-03-04 06:40:00,
2013-03-04 07:45:00,29.5,27.4,29.06,West,260,0.0,0.0,92,0.00,OVC,FEW,0.00,0.0,WeatherDisplay:10.37,2013-03-04 06:45:00,
2013-03-04 07:50:00,30.4,28.3,29.06,WSW,255,0.0,0.0,92,0.00,OVC,FEW,0.00,0.0,WeatherDisplay:10.37,2013-03-04 06:50:00,
2013-03-04 07:55:00,30.4,28.3,29.06,WSW,255,0.0,0.0,92,0.00,OVC,FEW,0.00,0.0,WeatherDisplay:10.37,2013-03-04 06:55:00,
2013-03-04 08:00:00,31.5,29.4,29.06,SW,235,0.0,0.0,92,0.00,OVC,FEW,0.00,0.0,WeatherDisplay:10.37,2013-03-04 07:00:00,
2013-03-04 08:05:00,32.0,29.4,29.06,WSW,240,0.0,0.0,90,0.00,OVC,FEW,0.00,0.0,WeatherDisplay:10.37,2013-03-04 07:05:00,
2013-03-04 08:10:00,32.5,29.1,29.09,South,185,0.0,0.0,87,0.00,OVC,FEW,0.00,0.0,WeatherDisplay:10.37,2013-03-04 07:10:00,
2013-03-04 08:15:00,32.9,28.9,29.09,South,185,0.0,0.0,85,0.00,OVC,FEW,0.00,0.0,WeatherDisplay:10.37,2013-03-04 07:15:00,
2013-03-04 08:20:00,33.6,29.0,29.09,South,175,0.0,0.0,83,0.00,OVC,FEW,0.00,0.0,WeatherDisplay:10.37,2013-03-04 07:20:00,
2013-03-04 08:25:00,33.6,29.0,29.09,South,175,0.0,0.0,83,0.00,OVC,FEW,0.00,0.0,WeatherDisplay:10.37,2013-03-04 07:25:00,
2013-03-04 08:30:00,33.6,28.7,29.09,South,175,0.0,0.0,82,0.00,OVC,FEW,0.00,0.0,WeatherDisplay:10.37,2013-03-04 07:30:00,
2013-03-04 08:35:00,34.5,29.3,29.09,South,190,0.0,0.0,81,0.00,OVC,FEW,0.00,0.0,WeatherDisplay:10.37,2013-03-04 07:35:00,
2013-03-04 08:40:00,34.3,28.8,29.09,SSE,165,2.3,2.8,80,0.00,OVC,FEW,0.00,0.0,WeatherDisplay:10.37,2013-03-04 07:40:00,
2013-03-04 08:45:00,34.3,28.8,29.09,SSE,150,3.5,3.5,80,0.00,OVC,FEW,0.00,0.0,WeatherDisplay:10.37,2013-03-04 07:45:00,
2013-03-04 08:50:00,34.7,29.2,29.09,SSE,150,3.5,3.5,80,0.00,OVC,FEW,0.00,0.0,WeatherDisplay:10.37,2013-03-04 07:50:00,
2013-03-04 08:55:00,34.7,29.2,29.09,SSE,150,3.5,3.5,80,0.00,OVC,FEW,0.00,0.0,WeatherDisplay:10.37,2013-03-04 07:55:00,
2013-03-04 09:00:00,35.8,29.9,29.09,SSE,155,0.0,0.0,79,0.00,OVC,FEW,0.00,0.0,WeatherDisplay:10.37,2013-03-04 08:00:00,
2013-03-04 09:06:00,37.2,30.3,29.09,South,175,0.0,0.0,76,0.00,OVC,FEW,0.00,0.0,WeatherDisplay:10.37,2013-03-04 08:06:00,
2013-03-04 09:11:00,37.2,30.0,29.09,South,180,2.3,2.8,75,0.00,OVC,FEW,0.00,0.0,WeatherDisplay:10.37,2013-03-04 08:11:00,
2013-03-04 09:16:00,37.2,29.7,29.09,SW,215,3.5,3.5,74,0.00,OVC,FEW,0.00,0.0,WeatherDisplay:10.37,2013-03-04 08:16:00,
2013-03-04 09:21:00,37.9,30.1,29.09,SW,220,2.3,2.4,73,0.00,OVC,FEW,0.00,0.0,WeatherDisplay:10.37,2013-03-04 08:21:00,
2013-03-04 09:26:00,37.9,30.1,29.09,SW,220,2.3,2.4,73,0.00,OVC,FEW,0.00,0.0,WeatherDisplay:10.37,2013-03-04 08:26:00,
2013-03-04 09:31:00,37.8,29.5,29.06,SW,220,4.6,4.6,72,0.00,OVC,FEW,0.00,0.0,WeatherDisplay:10.37,2013-03-04 08:31:00,
2013-03-04 09:36:00,38.1,29.9,29.06,SW,215,3.5,3.5,72,0.00,OVC,FEW,0.00,0.0,WeatherDisplay:10.37,2013-03-04 08:36:00,
2013-03-04 09:41:00,38.5,29.9,29.06,West,275,3.5,3.8,71,0.00,OVC,FEW,0.00,0.0,WeatherDisplay:10.37,2013-03-04 08:41:00,
2013-03-04 09:46:00,38.5,29.9,29.06,SW,215,3.5,3.5,71,0.00,OVC,FEW,0.00,0.0,WeatherDisplay:10.37,2013-03-04 08:46:00,
2013-03-04 09:51:00,38.7,29.7,29.06,SSW,200,3.5,3.8,70,0.00,OVC,FEW,0.00,0.0,WeatherDisplay:10.37,2013-03-04 08:51:00,
2013-03-04 09:56:00,38.7,29.7,29.06,SSW,200,3.5,3.8,70,0.00,OVC,FEW,0.00,0.0,WeatherDisplay:10.37,2013-03-04 08:56:00,
2013-03-04 10:01:00,38.5,29.5,29.06,WSW,245,4.6,4.6,70,0.00,OVC,FEW,0.00,0.0,WeatherDisplay:10.37,2013-03-04 09:01:00,
2013-03-04 10:06:00,38.7,29.4,29.06,SW,235,3.5,3.5,69,0.00,OVC,FEW,0.00,0.0,WeatherDisplay:10.37,2013-03-04 09:06:00,
2013-03-04 10:11:00,39.2,29.5,29.06,SW,215,3.5,3.5,68,0.00,OVC,FEW,0.00,0.0,WeatherDisplay:10.37,2013-03-04 09:11:00,
2013-03-04 10:16:00,39.0,29.3,29.06,SW,235,3.5,3.8,68,0.00,OVC,FEW,0.00,0.0,WeatherDisplay:10.37,2013-03-04 09:16:00,
2013-03-04 10:21:00,39.2,29.5,29.06,SW,225,4.6,4.6,68,0.00,OVC,FEW,0.00,0.0,WeatherDisplay:10.37,2013-03-04 09:21:00,
2013-03-04 10:26:00,39.2,29.5,29.06,SW,225,4.6,4.6,68,0.00,OVC,FEW,0.00,0.0,WeatherDisplay:10.37,2013-03-04 09:26:00,
2013-03-04 10:31:00,38.8,29.2,29.06,South,190,4.6,4.9,68,0.00,OVC,FEW,0.00,0.0,WeatherDisplay:10.37,2013-03-04 09:31:00,
2013-03-04 10:36:00,38.8,29.2,29.06,WSW,245,4.6,4.6,68,0.00,OVC,FEW,0.00,0.0,WeatherDisplay:10.37,2013-03-04 09:36:00,
2013-03-04 10:41:00,39.4,29.7,29.09,South,190,3.5,4.0,68,0.00,OVC,FEW,0.00,0.0,WeatherDisplay:10.37,2013-03-04 09:41:00,
2013-03-04 10:46:00,39.6,29.9,29.09,SSW,195,3.5,3.5,68,0.00,OVC,FEW,0.00,0.0,WeatherDisplay:10.37,2013-03-04 09:46:00,
2013-03-04 10:51:00,39.6,29.5,29.09,SSW,195,4.6,4.7,67,0.00,OVC,FEW,0.00,0.0,WeatherDisplay:10.37,2013-03-04 09:51:00,
2013-03-04 10:56:00,39.6,29.5,29.09,SSW,195,4.6,4.7,67,0.00,OVC,FEW,0.00,0.0,WeatherDisplay:10.37,2013-03-04 09:56:00,
2013-03-04 11:01:00,39.9,29.8,29.06,SW,220,4.6,4.6,67,0.00,OVC,FEW,0.00,0.0,WeatherDisplay:10.37,2013-03-04 10:01:00,
2013-03-04 11:06:00,40.5,30.0,29.06,SSW,205,4.6,4.6,66,0.00,OVC,FEW,0.00,0.0,WeatherDisplay:10.37,2013-03-04 10:06:00,
2013-03-04 11:11:00,40.5,29.6,29.06,South,175,2.3,2.6,65,0.00,OVC,FEW,0.00,0.0,WeatherDisplay:10.37,2013-03-04 10:11:00,
2013-03-04 11:16:00,40.3,29.4,29.06,WSW,240,2.3,2.6,65,0.00,OVC,FEW,0.00,0.0,WeatherDisplay:10.37,2013-03-04 10:16:00,
2013-03-04 11:21:00,40.3,29.8,29.06,SW,215,6.9,6.9,66,0.00,OVC,FEW,0.00,0.0,WeatherDisplay:10.37,2013-03-04 10:21:00,
2013-03-04 11:26:00,40.3,29.8,29.06,SW,215,6.9,6.9,66,0.00,OVC,FEW,0.00,0.0,WeatherDisplay:10.37,2013-03-04 10:26:00,
2013-03-04 11:31:00,40.5,29.6,29.06,South,185,5.8,5.8,65,0.00,OVC,FEW,0.00,0.0,WeatherDisplay:10.37,2013-03-04 10:31:00,
2013-03-04 11:36:00,40.5,29.6,29.06,SSW,195,6.9,6.9,65,0.00,OVC,FEW,0.00,0.0,WeatherDisplay:10.37,2013-03-04 10:36:00,
2013-03-04 11:41:00,40.5,29.6,29.06,South,190,8.1,8.1,65,0.00,OVC,FEW,0.00,0.0,WeatherDisplay:10.37,2013-03-04 10:41:00,
2013-03-04 11:46:00,40.8,30.0,29.06,SW,215,5.8,5.8,65,0.00,OVC,FEW,0.00,0.0,WeatherDisplay:10.37,2013-03-04 10:46:00,
2013-03-04 11:51:00,40.8,30.0,29.06,South,185,5.8,5.8,65,0.00,OVC,FEW,0.00,0.0,WeatherDisplay:10.37,2013-03-04 10:51:00,
2013-03-04 11:56:00,40.8,30.0,29.06,South,185,5.8,5.8,65,0.00,OVC,FEW,0.00,0.0,WeatherDisplay:10.37,2013-03-04 10:56:00,
2013-03-04 12:01:00,41.0,29.7,29.06,SW,235,4.6,5.1,64,0.00,OVC,FEW,0.00,0.0,WeatherDisplay:10.37,2013-03-04 11:01:00,
2013-03-04 12:06:00,41.5,30.3,29.06,South,190,4.6,5.1,64,0.00,OVC,FEW,0.00,0.0,WeatherDisplay:10.37,2013-03-04 11:06:00,
2013-03-04 12:11:00,41.2,29.9,29.09,South,180,5.8,6.0,64,0.00,OVC,FEW,0.00,0.0,WeatherDisplay:10.37,2013-03-04 11:11:00,
2013-03-04 12:16:00,42.1,30.8,29.09,SW,215,3.5,3.5,64,0.00,OVC,FEW,0.00,0.0,WeatherDisplay:10.37,2013-03-04 11:16:00,
2013-03-04 12:21:00,41.5,29.5,29.09,SSE,160,6.9,7.3,62,0.00,OVC,FEW,0.00,0.0,WeatherDisplay:10.37,2013-03-04 11:21:00,
2013-03-04 12:26:00,41.5,29.5,29.09,SSE,160,6.9,7.3,62,0.00,OVC,FEW,0.00,0.0,WeatherDisplay:10.37,2013-03-04 11:26:00,
2013-03-04 12:31:00,41.7,29.3,29.06,SSW,200,5.8,5.8,61,0.00,OVC,FEW,0.00,0.0,WeatherDisplay:10.37,2013-03-04 11:31:00,
2013-03-04 12:36:00,41.9,29.8,29.06,South,185,5.8,6.0,62,0.00,OVC,FEW,0.00,0.0,WeatherDisplay:10.37,2013-03-04 11:36:00,
2013-03-04 12:41:00,41.5,29.1,29.06,South,175,6.9,7.1,61,0.00,OVC,FEW,0.00,0.0,WeatherDisplay:10.37,2013-03-04 11:41:00,
2013-03-04 12:46:00,42.3,29.8,29.06,SW,215,5.8,5.8,61,0.00,OVC,FEW,0.00,0.0,WeatherDisplay:10.37,2013-03-04 11:46:00,
2013-03-04 12:51:00,42.8,29.5,29.06,SW,235,3.5,3.5,59,0.00,OVC,FEW,0.00,0.0,WeatherDisplay:10.37,2013-03-04 11:51:00,
2013-03-04 12:56:00,42.8,29.5,29.06,SW,235,3.5,3.5,59,0.00,OVC,FEW,0.00,0.0,WeatherDisplay:10.37,2013-03-04 11:56:00,
2013-03-04 13:01:00,42.3,29.4,29.06,SSW,200,6.9,7.1,60,0.00,OVC,FEW,0.00,0.0,WeatherDisplay:10.37,2013-03-04 12:01:00,
2013-03-04 13:06:00,42.6,29.7,29.06,South,185,4.6,4.6,60,0.00,OVC,FEW,0.00,0.0,WeatherDisplay:10.37,2013-03-04 12:06:00,
2013-03-04 13:11:00,42.4,29.5,29.06,South,180,5.8,5.8,60,0.00,OVC,FEW,0.00,0.0,WeatherDisplay:10.37,2013-03-04 12:11:00,
2013-03-04 13:16:00,42.4,29.1,29.06,South,170,5.8,5.8,59,0.00,OVC,FEW,0.00,0.0,WeatherDisplay:10.37,2013-03-04 12:16:00,
2013-03-04 13:21:00,42.8,29.5,29.06,SW,220,4.6,4.9,59,0.00,OVC,FEW,0.00,0.0,WeatherDisplay:10.37,2013-03-04 12:21:00,
2013-03-04 13:26:00,42.8,29.5,29.06,SW,220,4.6,4.9,59,0.00,OVC,FEW,0.00,0.0,WeatherDisplay:10.37,2013-03-04 12:26:00,
2013-03-04 13:31:00,43.0,29.6,29.06,WSW,245,6.9,6.9,59,0.00,OVC,FEW,0.00,0.0,WeatherDisplay:10.37,2013-03-04 12:31:00,
2013-03-04 13:36:00,42.6,29.3,29.06,SW,225,9.2,9.2,59,0.00,OVC,FEW,0.00,0.0,WeatherDisplay:10.37,2013-03-04 12:36:00,
2013-03-04 13:41:00,42.8,29.5,29.06,SSW,210,8.1,8.1,59,0.00,OVC,FEW,0.00,0.0,WeatherDisplay:10.37,2013-03-04 12:41:00,
2013-03-04 13:46:00,43.3,29.5,29.06,SSW,210,4.6,4.6,58,0.00,OVC,FEW,0.00,0.0,WeatherDisplay:10.37,2013-03-04 12:46:00,
2013-03-04 13:51:00,43.3,30.0,29.06,WSW,245,6.9,7.3,59,0.00,OVC,FEW,0.00,0.0,WeatherDisplay:10.37,2013-03-04 12:51:00,
2013-03-04 13:56:00,43.3,30.0,29.06,WSW,245,6.9,7.3,59,0.00,OVC,FEW,0.00,0.0,WeatherDisplay:10.37,2013-03-04 12:56:00,
2013-03-04 14:01:00,43.2,29.4,29.03,SW,215,9.2,9.4,58,0.00,OVC,FEW,0.00,0.0,WeatherDisplay:10.37,2013-03-04 13:01:00,
2013-03-04 14:06:00,43.7,29.5,29.03,SSW,200,8.1,8.3,57,0.00,OVC,FEW,0.00,0.0,WeatherDisplay:10.37,2013-03-04 13:06:00,
2013-03-04 14:11:00,43.3,29.1,29.03,South,190,6.9,6.9,57,0.00,OVC,FEW,0.00,0.0,WeatherDisplay:10.37,2013-03-04 13:11:00,
2013-03-04 14:16:00,43.5,29.3,29.03,South,185,9.2,9.4,57,0.00,OVC,FEW,0.00,0.0,WeatherDisplay:10.37,2013-03-04 13:16:00,
2013-03-04 14:21:00,43.7,29.0,29.03,South,170,5.8,5.8,56,0.00,OVC,FEW,0.00,0.0,WeatherDisplay:10.37,2013-03-04 13:21:00,
2013-03-04 14:26:00,43.7,29.0,29.03,South,170,5.8,5.8,56,0.00,OVC,FEW,0.00,0.0,WeatherDisplay:10.37,2013-03-04 13:26:00,
2013-03-04 14:31:00,43.7,29.0,29.03,WSW,240,8.1,8.1,56,0.00,OVC,FEW,0.00,0.0,WeatherDisplay:10.37,2013-03-04 13:31:00,
2013-03-04 14:36:00,43.9,29.2,29.03,SSE,150,6.9,7.0,56,0.00,OVC,FEW,0.00,0.0,WeatherDisplay:10.37,2013-03-04 13:36:00,
2013-03-04 14:41:00,44.2,29.5,29.03,WSW,245,3.5,3.8,56,0.00,OVC,FEW,0.00,0.0,WeatherDisplay:10.37,2013-03-04 13:41:00,
2013-03-04 14:46:00,44.6,29.9,29.03,West,280,4.6,4.6,56,0.00,OVC,FEW,0.00,0.0,WeatherDisplay:10.37,2013-03-04 13:46:00,
2013-03-04 14:51:00,44.4,29.2,29.03,SSW,195,4.6,4.7,55,0.00,OVC,FEW,0.00,0.0,WeatherDisplay:10.37,2013-03-04 13:51:00,
2013-03-04 14:56:00,44.2,28.6,29.03,WSW,250,5.8,5.8,54,0.00,OVC,FEW,0.00,0.0,WeatherDisplay:10.37,2013-03-04 13:56:00,
2013-03-04 15:01:00,44.2,28.6,29.03,WSW,250,5.8,5.8,54,0.00,OVC,FEW,0.00,0.0,WeatherDisplay:10.37,2013-03-04 14:01:00,
2013-03-04 15:06:00,44.1,29.4,29.03,West,265,9.2,9.2,56,0.00,OVC,FEW,0.00,0.0,WeatherDisplay:10.37,2013-03-04 14:06:00,
2013-03-04 15:11:00,44.1,28.9,29.03,SSW,200,8.1,8.1,55,0.00,OVC,FEW,0.00,0.0,WeatherDisplay:10.37,2013-03-04 14:11:00,
2013-03-04 15:16:00,43.9,28.7,29.03,SSW,205,6.9,7.1,55,0.00,OVC,FEW,0.00,0.0,WeatherDisplay:10.37,2013-03-04 14:16:00,
2013-03-04 15:21:00,44.4,28.8,29.03,SW,230,2.3,2.8,54,0.00,OVC,FEW,0.00,0.0,WeatherDisplay:10.37,2013-03-04 14:21:00,
2013-03-04 15:26:00,44.4,29.2,29.03,WSW,240,4.6,4.6,55,0.00,OVC,FEW,0.00,0.0,WeatherDisplay:10.37,2013-03-04 14:26:00,
2013-03-04 15:31:00,44.4,29.2,29.03,WSW,240,4.6,4.6,55,0.00,OVC,FEW,0.00,0.0,WeatherDisplay:10.37,2013-03-04 14:31:00,
2013-03-04 15:36:00,44.2,28.2,29.03,SSE,150,9.2,9.2,53,0.00,OVC,FEW,0.00,0.0,WeatherDisplay:10.37,2013-03-04 14:36:00,
2013-03-04 15:41:00,44.1,28.9,29.00,SW,235,6.9,6.9,55,0.00,OVC,FEW,0.00,0.0,WeatherDisplay:10.37,2013-03-04 14:41:00,
2013-03-04 15:46:00,43.9,28.7,29.00,South,190,9.2,9.2,55,0.00,OVC,FEW,0.00,0.0,WeatherDisplay:10.37,2013-03-04 14:46:00,
2013-03-04 15:51:00,44.1,28.9,29.00,West,265,3.5,3.5,55,0.00,OVC,FEW,0.00,0.0,WeatherDisplay:10.37,2013-03-04 14:51:00,
2013-03-04 15:56:00,44.2,27.7,29.03,South,170,7.1,7.1,52,0.00,OVC,FEW,0.00,0.0,WeatherDisplay:10.37,2013-03-04 14:56:00,
2013-03-04 16:01:00,44.2,28.2,29.03,South,185,8.1,8.1,53,0.00,OVC,FEW,0.00,0.0,WeatherDisplay:10.37,2013-03-04 15:01:00,
2013-03-04 16:06:00,44.2,28.2,29.03,South,185,8.1,8.1,53,0.00,OVC,FEW,0.00,0.0,WeatherDisplay:10.37,2013-03-04 15:06:00,
2013-03-04 16:11:00,44.4,28.8,29.00,SSW,205,5.8,5.8,54,0.00,OVC,FEW,0.00,0.0,WeatherDisplay:10.37,2013-03-04 15:11:00,
2013-03-04 16:16:00,44.1,28.0,29.00,SSW,205,5.8,5.8,53,0.00,OVC,FEW,0.00,0.0,WeatherDisplay:10.37,2013-03-04 15:16:00,
2013-03-04 16:21:00,44.1,28.5,29.00,WSW,255,3.5,3.5,54,0.00,OVC,FEW,0.00,0.0,WeatherDisplay:10.37,2013-03-04 15:21:00,
2013-03-04 16:26:00,43.9,28.7,29.00,South,170,5.8,5.8,55,0.00,OVC,FEW,0.00,0.0,WeatherDisplay:10.37,2013-03-04 15:26:00,
2013-03-04 16:31:00,43.9,28.7,29.00,South,170,5.8,5.8,55,0.00,OVC,FEW,0.00,0.0,WeatherDisplay:10.37,2013-03-04 15:31:00,
2013-03-04 16:36:00,44.1,28.5,29.00,SSW,200,3.5,4.0,54,0.00,OVC,FEW,0.00,0.0,WeatherDisplay:10.37,2013-03-04 15:36:00,
2013-03-04 16:41:00,43.9,28.7,29.00,South,185,4.6,4.6,55,0.00,OVC,FEW,0.00,0.0,WeatherDisplay:10.37,2013-03-04 15:41:00,
2013-03-04 16:46:00,43.5,28.4,29.00,SSW,200,4.6,4.6,55,0.00,OVC,FEW,0.00,0.0,WeatherDisplay:10.37,2013-03-04 15:46:00,
2013-03-04 16:51:00,43.9,28.7,29.00,SW,230,3.5,3.8,55,0.00,OVC,FEW,0.00,0.0,WeatherDisplay:10.37,2013-03-04 15:51:00,
2013-03-04 16:56:00,43.3,27.8,29.03,SSE,160,3.5,3.8,54,0.00,OVC,FEW,0.00,0.0,WeatherDisplay:10.37,2013-03-04 15:56:00,
2013-03-04 17:01:00,43.2,28.1,29.03,SSW,200,3.5,3.5,55,0.00,OVC,FEW,0.00,0.0,WeatherDisplay:10.37,2013-03-04 16:01:00,
2013-03-04 17:06:00,43.2,28.1,29.03,SSW,200,3.5,3.5,55,0.00,OVC,FEW,0.00,0.0,WeatherDisplay:10.37,2013-03-04 16:06:00,
2013-03-04 17:11:00,42.6,28.0,29.00,SSW,195,2.3,2.6,56,0.00,OVC,FEW,0.00,0.0,WeatherDisplay:10.37,2013-03-04 16:11:00,
2013-03-04 17:16:00,42.1,27.9,29.00,SW,220,4.6,4.7,57,0.00,OVC,FEW,0.00,0.0,WeatherDisplay:10.37,2013-03-04 16:16:00,
2013-03-04 17:21:00,41.5,27.8,29.00,WSW,240,1.1,1.5,58,0.00,OVC,FEW,0.00,0.0,WeatherDisplay:10.37,2013-03-04 16:21:00,
2013-03-04 17:26:00,41.9,28.2,29.00,SSW,210,3.5,3.5,58,0.00,OVC,FEW,0.00,0.0,WeatherDisplay:10.37,2013-03-04 16:26:00,
2013-03-04 17:31:00,41.9,28.2,29.00,SSW,210,3.5,3.5,58,0.00,OVC,FEW,0.00,0.0,WeatherDisplay:10.37,2013-03-04 16:31:00,
2013-03-04 17:36:00,41.4,27.7,29.00,WSW,245,1.1,1.7,58,0.00,OVC,FEW,0.00,0.0,WeatherDisplay:10.37,2013-03-04 16:36:00,
2013-03-04 17:41:00,40.8,27.6,29.00,SW,230,2.3,2.3,59,0.00,OVC,FEW,0.00,0.0,WeatherDisplay:10.37,2013-03-04 16:41:00,
2013-03-04 17:46:00,40.8,27.6,29.00,SW,230,2.3,2.3,59,0.00,OVC,FEW,0.00,0.0,WeatherDisplay:10.37,2013-03-04 16:46:00,
2013-03-04 17:51:00,39.2,27.7,29.00,South,185,0.0,0.0,63,0.00,OVC,FEW,0.00,0.0,WeatherDisplay:10.37,2013-03-04 16:51:00,
2013-03-04 17:56:00,38.5,27.7,29.00,South,185,0.0,0.0,65,0.00,OVC,FEW,0.00,0.0,WeatherDisplay:10.37,2013-03-04 16:56:00,
2013-03-04 18:01:00,37.9,27.6,29.00,South,185,0.0,0.0,66,0.00,CLR,FEW,0.00,0.0,WeatherDisplay:10.37,2013-03-04 17:01:00,
2013-03-04 18:06:00,37.9,27.6,29.00,South,185,0.0,0.0,66,0.00,CLR,FEW,0.00,0.0,WeatherDisplay:10.37,2013-03-04 17:06:00,
2013-03-04 18:11:00,37.2,27.6,29.00,SW,225,0.0,0.0,68,0.00,CLR,FEW,0.00,0.0,WeatherDisplay:10.37,2013-03-04 17:11:00,
2013-03-04 18:16:00,36.7,27.5,29.00,SW,225,0.0,0.0,69,0.00,CLR,FEW,0.00,0.0,WeatherDisplay:10.37,2013-03-04 17:16:00,
2013-03-04 18:21:00,36.0,27.1,29.00,SW,225,0.0,0.0,70,0.00,CLR,FEW,0.00,0.0,WeatherDisplay:10.37,2013-03-04 17:21:00,
2013-03-04 18:26:00,35.8,27.3,29.00,SW,225,0.0,0.0,71,0.00,CLR,FEW,0.00,0.0,WeatherDisplay:10.37,2013-03-04 17:26:00,
2013-03-04 18:31:00,35.8,27.3,29.00,SW,225,0.0,0.0,71,0.00,CLR,FEW,0.00,0.0,WeatherDisplay:10.37,2013-03-04 17:31:00,
2013-03-04 18:36:00,35.4,26.9,29.00,SW,230,0.0,0.0,71,0.00,CLR,FEW,0.00,0.0,WeatherDisplay:10.37,2013-03-04 17:36:00,
2013-03-04 18:41:00,35.1,26.9,29.03,SW,230,0.0,0.0,72,0.00,CLR,FEW,0.00,0.0,WeatherDisplay:10.37,2013-03-04 17:41:00,
2013-03-04 18:46:00,35.1,26.9,29.03,SW,230,0.0,0.0,72,0.00,CLR,FEW,0.00,0.0,WeatherDisplay:10.37,2013-03-04 17:46:00,
2013-03-04 18:51:00,34.9,26.8,29.03,SW,225,0.0,0.0,72,0.00,CLR,FEW,0.00,0.0,WeatherDisplay:10.37,2013-03-04 17:51:00,
2013-03-04 18:56:00,34.3,26.2,29.00,SW,225,0.0,0.0,72,0.00,CLR,FEW,0.00,0.0,WeatherDisplay:10.37,2013-03-04 17:56:00,
2013-03-04 19:01:00,34.3,26.6,29.00,SW,225,0.0,0.0,73,0.00,CLR,FEW,0.00,0.0,WeatherDisplay:10.37,2013-03-04 18:01:00,
2013-03-04 19:06:00,34.3,26.6,29.00,SW,225,0.0,0.0,73,0.00,CLR,FEW,0.00,0.0,WeatherDisplay:10.37,2013-03-04 18:06:00,
2013-03-04 19:11:00,34.3,26.9,29.00,SW,225,0.0,0.0,74,0.00,CLR,FEW,0.00,0.0,WeatherDisplay:10.37,2013-03-04 18:11:00,
2013-03-04 19:16:00,34.3,26.6,29.00,SW,220,0.0,0.0,73,0.00,CLR,FEW,0.00,0.0,WeatherDisplay:10.37,2013-03-04 18:16:00,
2013-03-04 19:22:00,33.4,26.0,29.00,SSW,210,0.0,0.0,74,0.00,CLR,FEW,0.00,0.0,WeatherDisplay:10.37,2013-03-04 18:22:00,
2013-03-04 19:27:00,33.4,26.0,29.00,SSW,210,0.0,0.0,74,0.00,CLR,FEW,0.00,0.0,WeatherDisplay:10.37,2013-03-04 18:27:00,
2013-03-04 19:29:00,33.4,26.0,29.00,SSW,210,0.0,0.0,74,0.00,CLR,FEW,0.00,0.0,WeatherDisplay:10.37,2013-03-04 18:29:00,
2013-03-04 19:30:00,33.4,26.0,29.00,SSW,210,0.0,0.0,74,0.00,CLR,FEW,0.00,0.0,WeatherDisplay:10.37,2013-03-04 18:30:00,
2013-03-04 19:35:00,32.7,26.3,29.00,SW,220,1.1,1.5,77,0.00,CLR,FEW,0.00,0.0,WeatherDisplay:10.37,2013-03-04 18:35:00,
2013-03-04 19:40:00,32.9,26.5,29.00,SW,215,1.1,1.5,77,0.00,CLR,FEW,0.00,0.0,WeatherDisplay:10.37,2013-03-04 18:40:00,
2013-03-04 19:45:00,32.7,26.3,29.00,SW,230,0.0,0.0,77,0.00,CLR,FEW,0.00,0.0,WeatherDisplay:10.37,2013-03-04 18:45:00,
2013-03-04 19:50:00,32.7,26.3,29.00,SW,230,0.0,0.0,77,0.00,CLR,FEW,0.00,0.0,WeatherDisplay:10.37,2013-03-04 18:50:00,
2013-03-04 19:55:00,32.9,26.2,29.00,SW,220,0.0,0.0,76,0.00,CLR,FEW,0.00,0.0,WeatherDisplay:10.37,2013-03-04 18:55:00,
2013-03-04 20:00:00,33.1,26.0,29.00,SW,215,0.0,0.0,75,0.00,CLR,FEW,0.00,0.0,WeatherDisplay:10.37,2013-03-04 19:00:00,
2013-03-04 20:05:00,32.9,25.8,29.00,SW,215,1.1,1.5,75,0.00,CLR,FEW,0.00,0.0,WeatherDisplay:10.37,2013-03-04 19:05:00,
2013-03-04 20:10:00,32.9,26.2,29.00,West,265,1.1,1.7,76,0.00,CLR,FEW,0.00,0.0,WeatherDisplay:10.37,2013-03-04 19:10:00,
2013-03-04 20:15:00,32.0,25.3,29.00,SSW,195,0.0,0.0,76,0.00,CLR,FEW,0.00,0.0,WeatherDisplay:10.37,2013-03-04 19:15:00,
2013-03-04 20:20:00,32.0,25.3,29.00,SSW,195,0.0,0.0,76,0.00,CLR,FEW,0.00,0.0,WeatherDisplay:10.37,2013-03-04 19:20:00,
2013-03-04 20:25:00,31.6,25.6,29.00,SSW,210,0.0,0.0,78,0.00,CLR,FEW,0.00,0.0,WeatherDisplay:10.37,2013-03-04 19:25:00,
2013-03-04 20:30:00,32.0,25.9,29.00,SW,220,2.3,2.3,78,0.00,CLR,FEW,0.00,0.0,WeatherDisplay:10.37,2013-03-04 19:30:00,
2013-03-04 20:35:00,32.4,26.0,29.00,SSW,210,1.1,1.5,77,0.00,CLR,FEW,0.00,0.0,WeatherDisplay:10.37,2013-03-04 19:35:00,
2013-03-04 20:40:00,32.0,25.6,29.03,SW,220,2.3,2.6,77,0.00,CLR,FEW,0.00,0.0,WeatherDisplay:10.37,2013-03-04 19:40:00,
2013-03-04 20:45:00,32.4,26.0,29.03,SW,230,1.1,1.5,77,0.00,CLR,FEW,0.00,0.0,WeatherDisplay:10.37,2013-03-04 19:45:00,
2013-03-04 20:50:00,32.4,26.0,29.03,SW,230,1.1,1.5,77,0.00,CLR,FEW,0.00,0.0,WeatherDisplay:10.37,2013-03-04 19:50:00,
2013-03-04 20:55:00,31.6,25.6,29.03,SW,230,2.3,2.3,78,0.00,CLR,FEW,0.00,0.0,WeatherDisplay:10.37,2013-03-04 19:55:00,
2013-03-04 21:00:00,31.8,25.7,29.03,SW,223,2.0,3.0,78,0.00,CLR,FEW,0.00,0.0,WeatherDisplay:10.37,2013-03-04 20:00:00,
2013-03-04 21:05:00,32.4,26.0,29.03,WSW,245,0.0,0.4,77,0.00,CLR,FEW,0.00,0.0,WeatherDisplay:10.37,2013-03-04 20:05:00,
2013-03-04 21:10:00,32.2,25.5,29.00,South,190,3.5,3.5,76,0.00,CLR,FEW,0.00,0.0,WeatherDisplay:10.37,2013-03-04 20:10:00,
2013-03-04 21:15:00,32.0,25.6,29.00,SSW,205,2.3,2.6,77,0.00,CLR,FEW,0.00,0.0,WeatherDisplay:10.37,2013-03-04 20:15:00,
2013-03-04 21:20:00,32.0,25.6,29.00,SSW,205,2.3,2.6,77,0.00,CLR,FEW,0.00,0.0,WeatherDisplay:10.37,2013-03-04 20:20:00,
2013-03-04 21:25:00,32.9,25.8,29.00,SW,215,0.0,0.0,75,0.00,CLR,FEW,0.00,0.0,WeatherDisplay:10.37,2013-03-04 20:25:00,
2013-03-04 21:30:00,32.9,25.5,29.03,SSW,200,0.0,0.4,74,0.00,CLR,FEW,0.00,0.0,WeatherDisplay:10.37,2013-03-04 20:30:00,
2013-03-04 21:35:00,32.0,25.3,29.03,South,175,0.0,0.0,76,0.00,CLR,FEW,0.00,0.0,WeatherDisplay:10.37,2013-03-04 20:35:00,
2013-03-04 21:40:00,31.3,25.2,29.00,South,175,2.3,2.8,78,0.00,CLR,FEW,0.00,0.0,WeatherDisplay:10.37,2013-03-04 20:40:00,
2013-03-04 21:45:00,31.3,25.2,29.00,SW,230,2.3,2.3,78,0.00,CLR,FEW,0.00,0.0,WeatherDisplay:10.37,2013-03-04 20:45:00,
2013-03-04 21:50:00,31.6,25.3,29.00,SSW,205,2.3,2.3,77,0.00,CLR,FEW,0.00,0.0,WeatherDisplay:10.37,2013-03-04 20:50:00,
2013-03-04 21:55:00,31.6,25.3,29.00,SSW,205,2.3,2.3,77,0.00,CLR,FEW,0.00,0.0,WeatherDisplay:10.37,2013-03-04 20:55:00,
2013-03-04 22:00:00,31.6,25.3,29.00,SSW,205,2.3,2.3,77,0.00,CLR,FEW,0.00,0.0,WeatherDisplay:10.37,2013-03-04 21:00:00,
2013-03-04 22:05:00,31.6,25.3,29.00,SSW,205,2.3,2.3,77,0.00,CLR,FEW,0.00,0.0,WeatherDisplay:10.37,2013-03-04 21:05:00,
2013-03-04 22:10:00,31.1,25.0,29.00,SW,215,1.1,1.7,78,0.00,CLR,FEW,0.00,0.0,WeatherDisplay:10.37,2013-03-04 21:10:00,
2013-03-04 22:15:00,31.5,25.4,29.00,SW,230,0.0,0.0,78,0.00,CLR,FEW,0.00,0.0,WeatherDisplay:10.37,2013-03-04 21:15:00,
2013-03-04 22:20:00,31.3,25.2,29.00,SW,215,2.3,2.3,78,0.00,CLR,FEW,0.00,0.0,WeatherDisplay:10.37,2013-03-04 21:20:00,
2013-03-04 22:25:00,31.3,25.2,29.00,SW,215,2.3,2.3,78,0.00,CLR,FEW,0.00,0.0,WeatherDisplay:10.37,2013-03-04 21:25:00,
2013-03-04 22:30:00,30.6,24.5,29.00,South,190,1.1,1.5,78,0.00,CLR,FEW,0.00,0.0,WeatherDisplay:10.37,2013-03-04 21:30:00,
2013-03-04 22:35:00,30.6,24.8,29.00,South,190,0.0,0.0,79,0.00,CLR,FEW,0.00,0.0,WeatherDisplay:10.37,2013-03-04 21:35:00,
2013-03-04 22:40:00,31.1,25.0,29.00,SW,220,1.1,1.1,78,0.00,CLR,FEW,0.00,0.0,WeatherDisplay:10.37,2013-03-04 21:40:00,
2013-03-04 22:46:00,31.1,25.0,29.00,South,190,1.1,1.7,78,0.00,CLR,FEW,0.00,0.0,WeatherDisplay:10.37,2013-03-04 21:46:00,
2013-03-04 22:51:00,31.1,25.0,29.00,SSW,200,0.0,0.0,78,0.00,CLR,FEW,0.00,0.0,WeatherDisplay:10.37,2013-03-04 21:51:00,
2013-03-04 22:56:00,31.1,25.0,29.00,SSW,200,0.0,0.0,78,0.00,CLR,FEW,0.00,0.0,WeatherDisplay:10.37,2013-03-04 21:56:00,
2013-03-04 23:01:00,31.1,25.0,29.00,SSW,210,0.0,0.0,78,0.00,CLR,FEW,0.00,0.0,WeatherDisplay:10.37,2013-03-04 22:01:00,
2013-03-04 23:06:00,31.3,24.9,29.00,SW,215,0.0,0.0,77,0.00,CLR,FEW,0.00,0.0,WeatherDisplay:10.37,2013-03-04 22:06:00,
2013-03-04 23:11:00,30.7,24.7,29.00,SSW,200,2.3,2.4,78,0.00,CLR,FEW,0.00,0.0,WeatherDisplay:10.37,2013-03-04 22:11:00,
2013-03-04 23:16:00,30.6,24.8,29.00,SSW,200,2.3,2.8,79,0.00,CLR,FEW,0.00,0.0,WeatherDisplay:10.37,2013-03-04 22:16:00,
2013-03-04 23:21:00,30.6,24.8,29.00,SSW,200,2.3,2.8,79,0.00,CLR,FEW,0.00,0.0,WeatherDisplay:10.37,2013-03-04 22:21:00,
2013-03-04 23:26:00,30.6,24.8,29.00,SSW,200,2.3,2.8,79,0.00,CLR,FEW,0.00,0.0,WeatherDisplay:10.37,2013-03-04 22:26:00,
2013-03-04 23:31:00,29.8,23.8,29.00,SSW,195,0.0,0.0,78,0.00,CLR,FEW,0.00,0.0,WeatherDisplay:10.37,2013-03-04 22:31:00,
2013-03-04 23:36:00,29.3,23.9,29.00,South,190,1.1,1.3,80,0.00,CLR,FEW,0.00,0.0,WeatherDisplay:10.37,2013-03-04 22:36:00,
2013-03-04 23:41:00,29.8,24.4,29.00,SW,220,2.3,2.3,80,0.00,CLR,FEW,0.00,0.0,WeatherDisplay:10.37,2013-03-04 22:41:00,
2013-03-04 23:46:00,30.0,24.3,29.00,SW,235,1.1,1.3,79,0.00,CLR,FEW,0.00,0.0,WeatherDisplay:10.37,2013-03-04 22:46:00,
2013-03-04 23:51:00,30.0,24.3,29.00,SW,215,1.1,1.5,79,0.00,CLR,FEW,0.00,0.0,WeatherDisplay:10.37,2013-03-04 22:51:00,
2013-03-04 23:56:00,30.0,24.3,29.00,SW,215,1.1,1.5,79,0.00,CLR,FEW,0.00,0.0,WeatherDisplay:10.37,2013-03-04 22:56:00,